createdAt,value
2023-01-06T00:00:40.868Z,14.85
2023-01-06T00:03:09.236Z,15.55
2023-01-06T00:05:36.158Z,15.10
2023-01-06T00:08:02.985Z,14.20
2023-01-06T00:10:29.772Z,13.70
2023-01-06T00:12:56.273Z,12.45
2023-01-06T00:15:22.861Z,14.63
2023-01-06T00:17:49.413Z,14.27
2023-01-06T00:20:15.989Z,13.40
2023-01-06T00:22:42.838Z,13.60
2023-01-06T00:25:12.783Z,12.30
2023-01-06T00:27:39.929Z,11.55
2023-01-06T00:30:08.210Z,11.90
2023-01-06T00:32:35.418Z,11.32
2023-01-06T00:35:02.714Z,11.20
2023-01-06T00:37:29.348Z,12.45
2023-01-06T00:39:55.829Z,10.95
2023-01-06T00:42:22.768Z,11.70
2023-01-06T00:44:49.768Z,10.57
2023-01-06T00:47:16.747Z,10.82
2023-01-06T00:49:43.305Z,9.75
2023-01-06T00:52:10.112Z,10.57
2023-01-06T00:54:39.651Z,10.27
2023-01-06T00:57:07.586Z,9.82
2023-01-06T00:59:34.625Z,8.25
2023-01-06T01:02:01.612Z,10.27
2023-01-06T01:04:29.122Z,10.73
2023-01-06T01:06:56.233Z,9.15
2023-01-06T01:09:25.554Z,8.50
2023-01-06T01:12:12.054Z,9.60
2023-01-06T01:14:49.918Z,8.60
2023-01-06T01:17:19.774Z,8.60
2023-01-06T01:19:47.427Z,7.82
2023-01-06T01:22:14.291Z,8.90
2023-01-06T01:24:40.975Z,9.10
2023-01-06T01:27:07.567Z,8.63
2023-01-06T01:29:34.132Z,8.15
2023-01-06T01:32:01.096Z,7.60
2023-01-06T01:34:28.016Z,8.35
2023-01-06T01:36:55.332Z,7.55
2023-01-06T01:39:28.705Z,7.10
2023-01-06T01:41:57.127Z,7.80
2023-01-06T01:45:01.548Z,8.10
2023-01-06T01:47:37.426Z,6.72
2023-01-06T01:50:14.281Z,7.15
2023-01-06T01:52:45.149Z,6.68
2023-01-06T01:55:13.447Z,6.57
2023-01-06T01:57:49.023Z,6.65
2023-01-06T02:00:17.404Z,4.40
2023-01-06T02:02:44.455Z,5.15
2023-01-06T02:05:13.914Z,6.53
2023-01-06T02:07:41.073Z,6.03
2023-01-06T02:10:07.539Z,5.40
2023-01-06T02:12:34.324Z,5.00
2023-01-06T02:15:00.876Z,5.95
2023-01-06T02:18:04.632Z,5.20
2023-01-06T02:20:45.822Z,4.85
2023-01-06T02:23:34.012Z,4.50
2023-01-06T02:26:09.481Z,3.78
2023-01-06T02:28:54.534Z,4.07
2023-01-06T02:31:24.008Z,4.35
2023-01-06T02:33:50.463Z,4.22
2023-01-06T02:36:16.894Z,3.95
2023-01-06T02:39:05.125Z,3.25
2023-01-06T02:41:54.635Z,3.67
2023-01-06T02:44:30.874Z,3.40
2023-01-06T02:47:27.277Z,3.70
2023-01-06T02:50:07.479Z,3.38
2023-01-06T02:53:13.686Z,3.13
2023-01-06T02:55:52.379Z,3.72
2023-01-06T02:58:42.430Z,3.42
2023-01-06T03:01:24.423Z,3.22
2023-01-06T03:03:53.207Z,3.25
2023-01-06T03:06:26.442Z,3.03
2023-01-06T03:08:55.243Z,3.00
2023-01-06T03:11:22.989Z,2.72
2023-01-06T03:13:55.441Z,2.90
2023-01-06T03:16:22.162Z,2.65
2023-01-06T03:18:51.100Z,3.35
2023-01-06T03:21:21.404Z,3.08
2023-01-06T03:23:48.052Z,2.60
2023-01-06T03:26:15.159Z,2.30
2023-01-06T03:28:41.677Z,2.70
2023-01-06T03:31:16.637Z,2.95
2023-01-06T03:34:00.792Z,2.28
2023-01-06T03:36:52.218Z,2.45
2023-01-06T03:39:26.345Z,2.28
2023-01-06T03:42:43.703Z,2.83
2023-01-06T03:45:38.492Z,2.30
2023-01-06T03:48:18.031Z,2.10
2023-01-06T03:51:07.243Z,2.63
2023-01-06T03:53:50.543Z,2.13
2023-01-06T03:56:21.563Z,2.05
2023-01-06T03:58:53.340Z,2.13
2023-01-06T04:01:21.167Z,2.47
2023-01-06T04:03:48.585Z,2.30
2023-01-06T04:06:15.125Z,2.10
2023-01-06T04:08:41.700Z,1.80
2023-01-06T04:11:08.220Z,2.00
2023-01-06T04:13:34.708Z,2.35
2023-01-06T04:16:01.222Z,2.03
2023-01-06T04:18:27.723Z,2.13
2023-01-06T04:20:54.196Z,1.70
2023-01-06T04:23:20.733Z,2.00
2023-01-06T04:25:47.274Z,2.35
2023-01-06T04:28:13.821Z,1.77
2023-01-06T04:30:40.309Z,1.77
2023-01-06T04:33:06.804Z,1.88
2023-01-06T04:35:33.307Z,2.00
2023-01-06T04:38:02.453Z,1.90
2023-01-06T04:40:28.958Z,1.67
2023-01-06T04:43:04.631Z,1.52
2023-01-06T04:45:31.431Z,1.30
2023-01-06T04:47:57.982Z,1.98
2023-01-06T04:50:24.486Z,1.38
2023-01-06T04:52:50.973Z,1.38
2023-01-06T04:55:17.580Z,1.42
2023-01-06T04:57:44.174Z,1.30
2023-01-06T05:00:11.310Z,1.67
2023-01-06T05:02:37.784Z,1.45
2023-01-06T05:05:04.619Z,1.25
2023-01-06T05:07:31.162Z,1.20
2023-01-06T05:09:57.623Z,1.60
2023-01-06T05:12:24.129Z,1.15
2023-01-06T05:14:50.617Z,1.20
2023-01-06T05:17:17.153Z,1.23
2023-01-06T05:19:44.448Z,1.20
2023-01-06T05:22:11.812Z,1.13
2023-01-06T05:24:38.536Z,0.70
2023-01-06T05:27:05.301Z,1.25
2023-01-06T05:29:31.944Z,1.20
2023-01-06T05:31:58.932Z,1.10
2023-01-06T05:34:25.669Z,1.20
2023-01-06T05:36:52.253Z,1.30
2023-01-06T05:39:18.849Z,1.35
2023-01-06T05:41:45.498Z,1.00
2023-01-06T05:44:12.034Z,1.17
2023-01-06T05:46:38.581Z,1.10
2023-01-06T05:49:05.207Z,1.10
2023-01-06T05:51:31.796Z,1.40
2023-01-06T05:53:58.302Z,1.20
2023-01-06T05:56:24.846Z,1.08
2023-01-06T05:58:53.397Z,1.30
2023-01-06T06:01:28.474Z,1.17
2023-01-06T06:03:55.784Z,1.25
2023-01-06T06:06:24.217Z,1.10
2023-01-06T06:08:51.054Z,0.90
2023-01-06T06:11:19.328Z,1.10
2023-01-06T06:13:51.087Z,1.20
2023-01-06T06:16:19.859Z,0.98
2023-01-06T06:18:53.915Z,1.10
2023-01-06T06:21:23.122Z,0.90
2023-01-06T06:23:49.939Z,0.95
2023-01-06T06:26:16.645Z,0.95
2023-01-06T06:28:43.227Z,1.48
2023-01-06T06:31:14.215Z,0.98
2023-01-06T06:33:41.068Z,0.98
2023-01-06T06:36:15.580Z,1.10
2023-01-06T06:38:43.472Z,0.80
2023-01-06T06:41:10.075Z,1.08
2023-01-06T06:43:36.890Z,0.70
2023-01-06T06:46:03.679Z,0.90
2023-01-06T06:48:30.643Z,1.00
2023-01-06T06:51:26.617Z,1.02
2023-01-06T06:53:53.100Z,1.10
2023-01-06T06:56:21.105Z,0.80
2023-01-06T06:58:48.234Z,0.90
2023-01-06T07:01:17.248Z,1.00
2023-01-06T07:03:44.406Z,1.13
2023-01-06T07:06:14.304Z,1.05
2023-01-06T07:08:45.051Z,0.90
2023-01-06T07:11:11.843Z,1.10
2023-01-06T07:13:38.397Z,0.90
2023-01-06T07:16:05.725Z,1.00
2023-01-06T07:18:32.259Z,1.00
2023-01-06T07:20:58.820Z,0.90
2023-01-06T07:23:25.479Z,1.13
2023-01-06T07:25:56.928Z,0.80
2023-01-06T07:28:24.625Z,1.33
2023-01-06T07:30:51.546Z,1.10
2023-01-06T07:33:19.360Z,1.10
2023-01-06T07:35:45.924Z,1.02
2023-01-06T07:38:12.650Z,1.05
2023-01-06T07:40:39.305Z,0.90
2023-01-06T07:43:07.983Z,0.80
2023-01-06T07:45:35.030Z,0.82
2023-01-06T07:48:02.136Z,0.80
2023-01-06T07:50:29.247Z,0.93
2023-01-06T07:53:01.186Z,0.90
2023-01-06T07:55:28.199Z,1.00
2023-01-06T07:57:54.775Z,1.10
2023-01-06T08:00:21.607Z,0.90
2023-01-06T08:02:48.687Z,0.93
2023-01-06T08:05:15.279Z,1.10
2023-01-06T08:07:41.839Z,0.80
2023-01-06T08:10:08.722Z,1.10
2023-01-06T08:12:35.942Z,1.48
2023-01-06T08:15:03.483Z,0.88
2023-01-06T08:17:30.705Z,0.95
2023-01-06T08:19:57.563Z,1.00
2023-01-06T08:22:24.439Z,0.80
2023-01-06T08:24:50.963Z,0.85
2023-01-06T08:27:18.245Z,1.70
2023-01-06T08:29:44.726Z,2.55
2023-01-06T08:32:11.289Z,4.75
2023-01-06T08:34:38.246Z,7.35
2023-01-06T08:37:04.892Z,8.82
2023-01-06T08:39:31.659Z,9.02
2023-01-06T08:41:58.166Z,10.18
2023-01-06T08:44:24.725Z,10.95
2023-01-06T08:46:51.211Z,11.65
2023-01-06T08:49:17.743Z,11.55
2023-01-06T08:51:44.269Z,12.15
2023-01-06T08:54:10.781Z,11.38
2023-01-06T08:56:39.306Z,12.45
2023-01-06T08:59:06.270Z,11.75
2023-01-06T09:01:35.976Z,12.45
2023-01-06T09:04:05.666Z,12.13
2023-01-06T09:06:32.244Z,11.73
2023-01-06T09:09:00.257Z,12.30
2023-01-06T09:11:27.287Z,11.27
2023-01-06T09:13:54.156Z,12.52
2023-01-06T09:16:21.753Z,10.95
2023-01-06T09:18:49.963Z,10.82
2023-01-06T09:21:18.556Z,11.85
2023-01-06T09:23:45.236Z,13.50
2023-01-06T09:26:12.450Z,11.75
2023-01-06T09:28:39.141Z,15.63
2023-01-06T09:31:05.707Z,20.30
2023-01-06T09:33:32.319Z,18.38
2023-01-06T09:35:58.904Z,18.13
2023-01-06T09:38:26.278Z,18.75
2023-01-06T09:41:15.062Z,16.85
2023-01-06T09:44:13.091Z,17.80
2023-01-06T09:46:43.861Z,19.20
2023-01-06T09:49:33.593Z,17.65
2023-01-06T09:52:04.783Z,19.17
2023-01-06T09:54:52.248Z,18.63
2023-01-06T09:57:45.812Z,24.60
2023-01-06T10:00:49.494Z,19.48
2023-01-06T10:03:19.716Z,20.77
2023-01-06T10:06:20.587Z,20.92
2023-01-06T10:08:59.363Z,20.17
2023-01-06T10:11:32.657Z,20.05
2023-01-06T10:14:06.879Z,19.88
2023-01-06T10:16:48.103Z,18.35
2023-01-06T10:19:36.361Z,20.67
2023-01-06T10:22:47.912Z,18.88
2023-01-06T10:25:32.953Z,18.50
2023-01-06T10:28:19.548Z,19.05
2023-01-06T10:30:50.462Z,17.75
2023-01-06T10:35:55.267Z,17.55
2023-01-06T10:38:37.307Z,18.50
2023-01-06T10:41:38.012Z,17.73
2023-01-06T10:44:05.821Z,16.83
2023-01-06T10:46:36.418Z,16.58
2023-01-06T10:49:05.307Z,16.90
2023-01-06T10:51:45.599Z,16.95
2023-01-06T10:54:18.017Z,16.70
2023-01-06T10:56:51.298Z,15.82
2023-01-06T10:59:17.877Z,16.67
2023-01-06T11:01:58.935Z,15.13
2023-01-06T11:04:27.934Z,15.65
2023-01-06T11:06:58.891Z,15.32
2023-01-06T11:09:25.412Z,14.95
2023-01-06T11:11:54.223Z,14.35
2023-01-06T11:14:25.037Z,12.25
2023-01-06T11:17:16.901Z,13.23
2023-01-06T11:19:45.665Z,13.57
2023-01-06T11:22:38.745Z,13.00
2023-01-06T11:25:20.059Z,12.40
2023-01-06T11:27:47.790Z,13.15
2023-01-06T11:30:30.795Z,13.23
2023-01-06T11:32:57.409Z,13.20
2023-01-06T11:35:30.244Z,46.13
2023-01-06T11:38:00.118Z,45.00
2023-01-06T11:40:29.964Z,37.22
2023-01-06T11:43:00.008Z,55.85
2023-01-06T11:45:40.107Z,39.40
2023-01-06T11:48:26.968Z,45.80
2023-01-06T11:51:02.271Z,49.30
2023-01-06T11:53:29.592Z,40.78
2023-01-06T11:56:06.684Z,33.20
2023-01-06T11:58:33.147Z,36.35
2023-01-06T12:01:07.324Z,37.15
2023-01-06T12:03:41.425Z,30.33
2023-01-06T12:06:14.038Z,20.65
2023-01-06T12:08:44.216Z,24.00
2023-01-06T12:11:18.769Z,29.42
2023-01-06T12:14:07.980Z,29.67
2023-01-06T12:16:57.625Z,29.75
2023-01-06T12:19:45.908Z,27.30
2023-01-06T12:22:32.971Z,28.50
2023-01-06T12:25:01.514Z,28.35
2023-01-06T12:27:34.534Z,25.60
2023-01-06T12:30:07.501Z,27.05
2023-01-06T12:32:42.503Z,23.42
2023-01-06T12:35:16.450Z,32.05
2023-01-06T12:37:48.997Z,54.80
2023-01-06T12:40:32.638Z,44.78
2023-01-06T12:43:16.931Z,40.95
2023-01-06T12:46:05.065Z,43.40
2023-01-06T12:48:50.195Z,41.88
2023-01-06T12:51:23.788Z,34.95
2023-01-06T12:53:57.970Z,32.35
2023-01-06T12:57:01.224Z,34.30
2023-01-06T12:59:56.483Z,28.17
2023-01-06T13:02:50.619Z,28.58
2023-01-06T13:05:58.361Z,24.63
2023-01-06T13:08:34.133Z,25.25
2023-01-06T13:11:13.440Z,25.92
2023-01-06T13:13:57.961Z,25.63
2023-01-06T13:16:38.731Z,21.48
2023-01-06T13:19:23.453Z,23.42
2023-01-06T13:21:53.469Z,22.55
2023-01-06T13:24:41.031Z,48.78
2023-01-06T13:27:52.684Z,34.33
2023-01-06T13:30:33.049Z,37.22
2023-01-06T13:33:22.858Z,37.75
2023-01-06T13:36:04.662Z,37.42
2023-01-06T13:38:53.974Z,36.65
2023-01-06T13:41:26.429Z,36.22
2023-01-06T13:43:55.107Z,35.65
2023-01-06T13:46:24.514Z,35.10
2023-01-06T13:48:55.302Z,39.47
2023-01-06T13:51:27.035Z,34.17
2023-01-06T13:53:54.957Z,36.47
2023-01-06T13:56:21.431Z,35.83
2023-01-06T13:58:50.890Z,34.22
2023-01-06T14:01:20.392Z,28.92
2023-01-06T14:03:49.731Z,32.25
2023-01-06T14:06:22.290Z,26.38
2023-01-06T14:08:52.879Z,29.20
2023-01-06T14:11:28.095Z,29.42
2023-01-06T14:13:57.803Z,25.48
2023-01-06T14:16:43.630Z,27.00
2023-01-06T14:19:52.419Z,25.63
2023-01-06T14:22:26.130Z,31.13
2023-01-06T14:27:45.364Z,31.52
2023-01-06T14:30:39.249Z,30.40
2023-01-06T14:33:27.544Z,30.50
2023-01-06T14:36:03.325Z,35.90
2023-01-06T14:38:57.713Z,38.40
2023-01-06T14:41:36.557Z,32.60
2023-01-06T14:44:13.572Z,34.40
2023-01-06T14:46:45.484Z,36.20
2023-01-06T14:49:19.721Z,32.65
2023-01-06T14:51:47.479Z,35.72
2023-01-06T14:54:24.475Z,31.33
2023-01-06T14:56:56.203Z,36.03
2023-01-06T14:59:23.170Z,36.85
2023-01-06T15:02:02.331Z,33.85
2023-01-06T15:04:34.798Z,34.45
2023-01-06T15:07:19.601Z,33.45
2023-01-06T15:09:47.975Z,34.55
2023-01-06T15:12:27.215Z,35.70
2023-01-06T15:14:54.262Z,31.45
2023-01-06T15:17:21.393Z,36.72
2023-01-06T15:19:50.051Z,32.83
2023-01-06T15:22:23.582Z,30.60
2023-01-06T15:24:50.294Z,32.13
2023-01-06T15:27:18.747Z,29.77
2023-01-06T15:29:55.792Z,28.25
2023-01-06T15:32:25.963Z,25.50
2023-01-06T15:34:56.447Z,28.08
2023-01-06T15:37:25.604Z,26.23
2023-01-06T15:39:53.478Z,24.88
2023-01-06T15:42:23.605Z,24.55
2023-01-06T15:44:56.782Z,25.52
2023-01-06T15:47:32.412Z,25.77
2023-01-06T15:50:03.464Z,26.00
2023-01-06T15:52:36.744Z,33.50
2023-01-06T15:55:19.439Z,26.77
2023-01-06T15:57:57.254Z,27.63
2023-01-06T16:00:26.812Z,28.95
2023-01-06T16:02:53.706Z,26.75
2023-01-06T16:05:43.032Z,24.60
2023-01-06T16:08:24.364Z,26.55
2023-01-06T16:11:09.408Z,25.33
2023-01-06T16:13:36.004Z,25.83
2023-01-06T16:16:33.114Z,27.58
2023-01-06T16:19:08.848Z,26.67
2023-01-06T16:21:35.657Z,27.80
2023-01-06T16:24:05.454Z,29.17
2023-01-06T16:26:42.459Z,29.88
2023-01-06T16:29:37.457Z,28.73
2023-01-06T16:32:33.805Z,30.27
2023-01-06T16:35:11.782Z,32.47
2023-01-06T16:37:38.367Z,32.63
2023-01-06T16:40:05.454Z,34.80
2023-01-06T16:42:39.951Z,35.28
2023-01-06T16:45:27.964Z,39.58
2023-01-06T16:47:55.327Z,42.38
2023-01-06T16:50:23.358Z,43.67
2023-01-06T16:53:21.878Z,40.30
2023-01-06T16:55:53.908Z,45.13
2023-01-06T16:58:28.349Z,40.78
2023-01-06T17:00:58.249Z,41.00
2023-01-06T17:03:37.076Z,40.40
2023-01-06T17:06:04.374Z,42.00
2023-01-06T17:08:34.706Z,38.35
2023-01-06T17:11:06.963Z,39.17
2023-01-06T17:13:36.431Z,39.95
2023-01-06T17:16:16.975Z,38.88
2023-01-06T17:19:23.236Z,39.72
2023-01-06T17:21:52.758Z,38.33
2023-01-06T17:24:25.619Z,38.00
2023-01-06T17:27:02.318Z,34.50
2023-01-06T17:29:33.279Z,37.47
2023-01-06T17:32:02.909Z,33.60
2023-01-06T17:34:33.575Z,33.72
2023-01-06T17:37:12.335Z,33.10
2023-01-06T17:39:44.723Z,32.80
2023-01-06T17:42:11.180Z,31.35
2023-01-06T17:44:40.243Z,30.48
2023-01-06T17:47:35.201Z,30.17
2023-01-06T17:50:23.118Z,29.67
2023-01-06T17:53:09.796Z,27.83
2023-01-06T17:55:48.676Z,26.23
2023-01-06T17:58:22.024Z,25.90
2023-01-06T18:00:48.666Z,24.65
2023-01-06T18:03:22.454Z,24.50
2023-01-06T18:08:17.111Z,26.98
2023-01-06T18:10:45.972Z,30.52
2023-01-06T18:13:18.442Z,30.48
2023-01-06T18:15:53.322Z,31.23
2023-01-06T18:18:32.841Z,31.02
2023-01-06T18:21:05.204Z,29.90
2023-01-06T18:23:34.515Z,31.75
2023-01-06T18:26:25.765Z,34.30
2023-01-06T18:29:17.560Z,33.28
2023-01-06T18:31:46.256Z,31.77
2023-01-06T18:34:40.000Z,34.72
2023-01-06T18:37:06.908Z,34.22
2023-01-06T18:39:42.832Z,33.95
2023-01-06T18:42:29.474Z,32.08
2023-01-06T18:45:02.059Z,31.95
2023-01-06T18:47:30.413Z,31.52
2023-01-06T18:50:13.919Z,31.80
2023-01-06T18:52:46.208Z,32.10
2023-01-06T18:55:19.496Z,30.63
2023-01-06T18:57:54.898Z,33.00
2023-01-06T19:00:41.216Z,34.28
2023-01-06T19:03:26.394Z,35.20
2023-01-06T19:05:59.263Z,37.45
2023-01-06T19:08:35.345Z,42.33
2023-01-06T19:11:03.650Z,45.15
2023-01-06T19:13:30.383Z,44.58
2023-01-06T19:16:02.527Z,45.90
2023-01-06T19:18:33.970Z,47.17
2023-01-06T19:21:04.018Z,43.58
2023-01-06T19:23:32.103Z,43.75
2023-01-06T19:26:11.970Z,42.60
2023-01-06T19:28:38.514Z,42.50
2023-01-06T19:31:05.817Z,44.58
2023-01-06T19:33:59.405Z,42.33
2023-01-06T19:36:42.763Z,44.83
2023-01-06T19:39:36.362Z,42.58
2023-01-06T19:42:27.069Z,44.88
2023-01-06T19:44:57.177Z,44.53
2023-01-06T19:47:31.889Z,43.22
2023-01-06T19:50:07.038Z,42.50
2023-01-06T19:52:39.319Z,51.58
2023-01-06T19:55:30.334Z,49.13
2023-01-06T19:58:02.434Z,44.13
2023-01-06T20:00:41.572Z,47.30
2023-01-06T20:03:42.005Z,47.65
2023-01-06T20:06:08.543Z,45.92
2023-01-06T20:08:35.070Z,47.08
2023-01-06T20:11:01.697Z,48.75
2023-01-06T20:13:28.200Z,48.90
2023-01-06T20:15:54.735Z,54.05
2023-01-06T20:18:21.391Z,55.78
2023-01-06T20:20:47.883Z,53.92
2023-01-06T20:23:14.477Z,47.80
2023-01-06T20:25:41.130Z,49.45
2023-01-06T20:28:07.955Z,48.17
2023-01-06T20:30:34.485Z,49.47
2023-01-06T20:33:02.088Z,49.63
2023-01-06T20:35:28.847Z,46.15
2023-01-06T20:37:55.389Z,44.08
2023-01-06T20:40:21.973Z,39.30
2023-01-06T20:42:48.527Z,39.92
2023-01-06T20:45:15.063Z,39.63
2023-01-06T20:47:43.701Z,35.55
2023-01-06T20:50:13.647Z,38.28
2023-01-06T20:52:41.811Z,35.80
2023-01-06T20:55:09.208Z,32.80
2023-01-06T20:57:35.822Z,36.85
2023-01-06T21:00:02.591Z,34.85
2023-01-06T21:02:29.324Z,31.13
2023-01-06T21:04:55.915Z,31.73
2023-01-06T21:07:22.543Z,31.25
2023-01-06T21:09:49.098Z,32.10
2023-01-06T21:12:15.646Z,29.88
2023-01-06T21:14:42.197Z,26.92
2023-01-06T21:17:08.710Z,28.25
2023-01-06T21:19:35.343Z,27.83
2023-01-06T21:22:01.908Z,24.77
2023-01-06T21:24:28.440Z,22.60
2023-01-06T21:26:54.939Z,25.40
2023-01-06T21:29:21.635Z,22.40
2023-01-06T21:31:48.266Z,21.30
2023-01-06T21:34:14.795Z,20.23
2023-01-06T21:36:41.349Z,19.80
2023-01-06T21:39:09.574Z,20.92
2023-01-06T21:41:54.871Z,19.70
2023-01-06T21:44:21.689Z,19.08
2023-01-06T21:46:48.249Z,17.67
2023-01-06T21:49:14.857Z,17.63
2023-01-06T21:51:42.004Z,16.65
2023-01-06T21:54:08.636Z,16.23
2023-01-06T21:56:35.780Z,16.50
2023-01-06T21:59:02.613Z,13.63
2023-01-06T22:01:29.899Z,14.02
2023-01-06T22:03:56.541Z,14.13
2023-01-06T22:06:23.808Z,13.10
2023-01-06T22:08:53.463Z,13.50
2023-01-06T22:11:20.216Z,12.70
2023-01-06T22:13:47.022Z,12.98
2023-01-06T22:16:13.878Z,12.00
2023-01-06T22:18:40.762Z,11.70
2023-01-06T22:21:07.384Z,12.35
2023-01-06T22:23:34.953Z,11.68
2023-01-06T22:26:01.524Z,11.32
2023-01-06T22:28:28.071Z,12.27
2023-01-06T22:30:55.112Z,11.80
2023-01-06T22:33:21.880Z,11.13
2023-01-06T22:35:48.570Z,11.15
2023-01-06T22:38:15.111Z,10.18
2023-01-06T22:40:41.670Z,11.23
2023-01-06T22:43:08.285Z,11.32
2023-01-06T22:45:35.094Z,11.40
2023-01-06T22:48:01.679Z,10.77
2023-01-06T22:50:28.210Z,11.00
2023-01-06T22:52:56.358Z,10.38
2023-01-06T22:55:22.935Z,10.13
2023-01-06T22:57:49.551Z,9.50
2023-01-06T23:00:18.334Z,9.90
2023-01-06T23:02:45.050Z,9.27
2023-01-06T23:05:11.733Z,9.90
2023-01-06T23:07:42.662Z,9.35
2023-01-06T23:10:11.471Z,9.60
2023-01-06T23:12:39.384Z,9.68
2023-01-06T23:15:07.414Z,9.02
2023-01-06T23:17:36.305Z,8.20
2023-01-06T23:20:03.303Z,8.57
2023-01-06T23:22:29.813Z,8.32
2023-01-06T23:24:56.308Z,8.52
2023-01-06T23:27:22.854Z,8.32
2023-01-06T23:29:49.451Z,8.32
2023-01-06T23:32:15.989Z,8.75
2023-01-06T23:34:42.535Z,7.70
2023-01-06T23:37:09.026Z,7.72
2023-01-06T23:39:35.533Z,7.28
2023-01-06T23:42:04.266Z,7.05
2023-01-06T23:44:30.803Z,7.18
2023-01-06T23:46:57.326Z,7.63
2023-01-06T23:49:23.859Z,6.72
2023-01-06T23:51:50.397Z,7.50
2023-01-06T23:54:17.073Z,7.22
2023-01-06T23:56:43.601Z,6.72
2023-01-06T23:59:12.332Z,7.30
